Aviation Digital Data Service (ADDS)

Output produced by METARs form (0009 UTC 24 May 2022)
found at http://www.aviationweather.gov/metar/data/
 
HUEN 232330Z 33004KT CAVOK 22/20 Q1014
TAF HUEN 232300Z 2400/2506 VRB10KT 9999 FEW023 FEW025CB 
     TEMPO 2404/2407 VRB10G20KT 8000 -TSRA SCT019 FEW021CB BKN100 
     BECMG 2411/2414 16006KT SCT025 FEW027CB 
     BECMG 2421/2424 36010KT -TS SCT020 FEW022CB 
     BECMG 2502/2506 36008G18KT 9000 -RA BKN018 FEW020CB